KDNS

Denison Municipal Airport

Denison, Iowa, USA
METAR KDNS 201615Z AUTO 02015G26KT 2SM -RA BKN013 19/18 A2976 RMK AO2
Observed Flight Rules
Aug-20 @ 16:15 UTC (10 minutes ago) Instrument Flight Rules
Wind Visibility Clouds Conditions
20° at 15 knots
 Gusting to 26 knots
2 miles
  • Broken at 1,300' AGL
  • Light Rain
Temperatures Readings
Current 19°C / 66°F
Dewpoint 18°C / 64°F
Humidity 94%
Altimeter 29.76" Hg
Pressure 1008 hPa
Elevation 388
METAR KDNS 201615Z AUTO 02015G26KT 2SM -RA BKN013 19/18 A2976 RMK AO2
Observed Flight Rules
Aug-20 @ 16:15 UTC
(10 minutes ago)
IFR
Wind Visibility
20° at 15 knots
 Gusting to 26 knots
2 miles
Clouds
  • Broken at 1,300' AGL
Conditions
  • Light Rain
Temperature Dewpoint
19°C / 66°F 18°C / 64°F
Humidity Altimeter Pressure
94% 29.76" Hg 1008 hPa